sensor_id;sensor_type;location;lat;lon;timestamp;P1;durP1;ratioP1;P2;durP2;ratioP2
42616;SDS011;28250;52.320;0.360;2024-02-16T00:01:36;10.52;;;5.05;;
42616;SDS011;28250;52.320;0.360;2024-02-16T00:04:02;9.93;;;5.28;;
42616;SDS011;28250;52.320;0.360;2024-02-16T00:06:28;9.30;;;5.07;;
42616;SDS011;28250;52.320;0.360;2024-02-16T00:08:54;9.27;;;5.00;;
42616;SDS011;28250;52.320;0.360;2024-02-16T00:11:20;9.25;;;5.32;;
42616;SDS011;28250;52.320;0.360;2024-02-16T00:13:48;9.40;;;5.20;;
42616;SDS011;28250;52.320;0.360;2024-02-16T00:16:14;11.23;;;5.68;;
42616;SDS011;28250;52.320;0.360;2024-02-16T00:18:40;9.30;;;4.95;;
42616;SDS011;28250;52.320;0.360;2024-02-16T00:21:06;10.60;;;5.35;;
42616;SDS011;28250;52.320;0.360;2024-02-16T00:23:33;8.98;;;4.88;;
42616;SDS011;28250;52.320;0.360;2024-02-16T00:25:59;7.72;;;4.97;;
42616;SDS011;28250;52.320;0.360;2024-02-16T00:28:27;10.30;;;5.07;;
42616;SDS011;28250;52.320;0.360;2024-02-16T00:30:53;11.48;;;5.55;;
42616;SDS011;28250;52.320;0.360;2024-02-16T00:33:19;11.50;;;5.40;;
42616;SDS011;28250;52.320;0.360;2024-02-16T00:35:45;15.43;;;5.78;;
42616;SDS011;28250;52.320;0.360;2024-02-16T00:38:14;16.00;;;5.30;;
42616;SDS011;28250;52.320;0.360;2024-02-16T00:40:40;10.95;;;5.10;;
42616;SDS011;28250;52.320;0.360;2024-02-16T00:43:09;7.88;;;5.38;;
42616;SDS011;28250;52.320;0.360;2024-02-16T00:45:36;11.77;;;6.50;;
42616;SDS011;28250;52.320;0.360;2024-02-16T00:48:03;10.63;;;6.25;;
42616;SDS011;28250;52.320;0.360;2024-02-16T00:50:32;9.75;;;5.97;;
42616;SDS011;28250;52.320;0.360;2024-02-16T00:52:58;7.22;;;5.35;;
42616;SDS011;28250;52.320;0.360;2024-02-16T00:55:25;9.32;;;5.57;;
42616;SDS011;28250;52.320;0.360;2024-02-16T00:57:51;11.25;;;5.45;;
42616;SDS011;28250;52.320;0.360;2024-02-16T01:00:17;12.45;;;6.25;;
42616;SDS011;28250;52.320;0.360;2024-02-16T01:05:11;8.30;;;4.63;;
42616;SDS011;28250;52.320;0.360;2024-02-16T01:07:37;11.57;;;5.43;;
42616;SDS011;28250;52.320;0.360;2024-02-16T01:10:04;12.70;;;5.93;;
42616;SDS011;28250;52.320;0.360;2024-02-16T01:12:31;8.07;;;5.55;;
42616;SDS011;28250;52.320;0.360;2024-02-16T01:14:57;13.43;;;6.13;;
42616;SDS011;28250;52.320;0.360;2024-02-16T01:17:25;10.52;;;5.75;;
42616;SDS011;28250;52.320;0.360;2024-02-16T01:22:56;9.68;;;5.35;;
42616;SDS011;28250;52.320;0.360;2024-02-16T01:25:22;11.07;;;6.20;;
42616;SDS011;28250;52.320;0.360;2024-02-16T01:27:49;9.82;;;5.60;;
42616;SDS011;28250;52.320;0.360;2024-02-16T01:30:15;11.07;;;5.45;;
42616;SDS011;28250;52.320;0.360;2024-02-16T01:32:41;10.87;;;6.10;;
42616;SDS011;28250;52.320;0.360;2024-02-16T01:35:07;10.88;;;5.40;;
42616;SDS011;28250;52.320;0.360;2024-02-16T01:37:33;11.40;;;5.88;;
42616;SDS011;28250;52.320;0.360;2024-02-16T01:39:59;10.57;;;5.95;;
42616;SDS011;28250;52.320;0.360;2024-02-16T01:42:27;9.52;;;6.13;;
42616;SDS011;28250;52.320;0.360;2024-02-16T01:44:53;12.32;;;6.22;;
42616;SDS011;28250;52.320;0.360;2024-02-16T01:47:19;9.60;;;6.35;;
42616;SDS011;28250;52.320;0.360;2024-02-16T01:49:45;15.50;;;6.38;;
42616;SDS011;28250;52.320;0.360;2024-02-16T01:52:11;14.40;;;6.60;;
42616;SDS011;28250;52.320;0.360;2024-02-16T01:54:37;16.10;;;6.95;;
42616;SDS011;28250;52.320;0.360;2024-02-16T01:57:04;11.75;;;6.80;;
42616;SDS011;28250;52.320;0.360;2024-02-16T01:59:32;12.43;;;7.50;;
42616;SDS011;28250;52.320;0.360;2024-02-16T02:01:59;13.90;;;7.03;;
42616;SDS011;28250;52.320;0.360;2024-02-16T02:04:26;14.60;;;7.65;;
42616;SDS011;28250;52.320;0.360;2024-02-16T02:06:53;18.35;;;9.35;;
42616;SDS011;28250;52.320;0.360;2024-02-16T02:09:20;14.27;;;8.10;;
42616;SDS011;28250;52.320;0.360;2024-02-16T02:11:46;20.88;;;9.00;;
42616;SDS011;28250;52.320;0.360;2024-02-16T02:14:12;18.53;;;8.67;;
42616;SDS011;28250;52.320;0.360;2024-02-16T02:16:38;21.17;;;10.10;;
42616;SDS011;28250;52.320;0.360;2024-02-16T02:19:04;18.90;;;10.32;;
42616;SDS011;28250;52.320;0.360;2024-02-16T02:21:30;15.75;;;8.82;;
42616;SDS011;28250;52.320;0.360;2024-02-16T02:23:57;22.10;;;10.27;;
42616;SDS011;28250;52.320;0.360;2024-02-16T02:26:23;14.23;;;8.85;;
42616;SDS011;28250;52.320;0.360;2024-02-16T02:28:49;14.32;;;9.15;;
42616;SDS011;28250;52.320;0.360;2024-02-16T02:31:15;12.50;;;9.07;;
42616;SDS011;28250;52.320;0.360;2024-02-16T02:33:41;14.77;;;8.98;;
42616;SDS011;28250;52.320;0.360;2024-02-16T02:36:07;16.40;;;8.85;;
42616;SDS011;28250;52.320;0.360;2024-02-16T02:38:33;14.50;;;8.57;;
42616;SDS011;28250;52.320;0.360;2024-02-16T02:41:00;15.20;;;8.45;;
42616;SDS011;28250;52.320;0.360;2024-02-16T02:43:26;18.73;;;8.18;;
42616;SDS011;28250;52.320;0.360;2024-02-16T02:45:52;18.05;;;9.18;;
42616;SDS011;28250;52.320;0.360;2024-02-16T02:48:18;14.77;;;8.32;;
42616;SDS011;28250;52.320;0.360;2024-02-16T02:50:44;14.85;;;8.02;;
42616;SDS011;28250;52.320;0.360;2024-02-16T02:53:10;14.23;;;7.68;;
42616;SDS011;28250;52.320;0.360;2024-02-16T02:55:36;12.95;;;8.80;;
42616;SDS011;28250;52.320;0.360;2024-02-16T02:58:02;15.05;;;8.23;;
42616;SDS011;28250;52.320;0.360;2024-02-16T03:00:29;16.50;;;8.25;;
42616;SDS011;28250;52.320;0.360;2024-02-16T03:02:55;13.77;;;8.07;;
42616;SDS011;28250;52.320;0.360;2024-02-16T03:05:21;13.38;;;7.07;;
42616;SDS011;28250;52.320;0.360;2024-02-16T03:07:47;10.73;;;5.85;;
42616;SDS011;28250;52.320;0.360;2024-02-16T03:10:14;9.50;;;6.68;;
42616;SDS011;28250;52.320;0.360;2024-02-16T03:12:45;5.82;;;4.55;;
42616;SDS011;28250;52.320;0.360;2024-02-16T03:15:14;10.07;;;5.00;;
42616;SDS011;28250;52.320;0.360;2024-02-16T03:20:07;6.88;;;3.95;;
42616;SDS011;28250;52.320;0.360;2024-02-16T03:22:34;5.72;;;3.63;;
42616;SDS011;28250;52.320;0.360;2024-02-16T03:25:00;7.13;;;3.35;;
42616;SDS011;28250;52.320;0.360;2024-02-16T03:27:27;5.40;;;3.83;;
42616;SDS011;28250;52.320;0.360;2024-02-16T03:29:53;5.30;;;3.13;;
42616;SDS011;28250;52.320;0.360;2024-02-16T03:32:19;3.40;;;2.75;;
42616;SDS011;28250;52.320;0.360;2024-02-16T03:34:45;5.15;;;3.17;;
42616;SDS011;28250;52.320;0.360;2024-02-16T03:37:11;5.57;;;3.40;;
42616;SDS011;28250;52.320;0.360;2024-02-16T03:39:37;6.65;;;3.30;;
42616;SDS011;28250;52.320;0.360;2024-02-16T03:42:04;6.35;;;3.45;;
42616;SDS011;28250;52.320;0.360;2024-02-16T03:44:30;4.85;;;3.42;;
42616;SDS011;28250;52.320;0.360;2024-02-16T03:46:56;5.93;;;3.42;;
42616;SDS011;28250;52.320;0.360;2024-02-16T03:49:22;5.50;;;3.33;;
42616;SDS011;28250;52.320;0.360;2024-02-16T03:51:51;7.93;;;4.07;;
42616;SDS011;28250;52.320;0.360;2024-02-16T03:54:17;7.75;;;4.53;;
42616;SDS011;28250;52.320;0.360;2024-02-16T03:56:43;6.32;;;3.70;;
42616;SDS011;28250;52.320;0.360;2024-02-16T03:59:10;8.23;;;4.43;;
42616;SDS011;28250;52.320;0.360;2024-02-16T04:01:36;7.10;;;4.20;;
42616;SDS011;28250;52.320;0.360;2024-02-16T04:04:02;6.47;;;4.40;;
42616;SDS011;28250;52.320;0.360;2024-02-16T04:06:29;8.85;;;3.95;;
42616;SDS011;28250;52.320;0.360;2024-02-16T04:08:55;5.78;;;4.03;;
42616;SDS011;28250;52.320;0.360;2024-02-16T04:11:21;6.18;;;4.63;;
42616;SDS011;28250;52.320;0.360;2024-02-16T04:13:48;7.28;;;4.47;;
42616;SDS011;28250;52.320;0.360;2024-02-16T04:16:14;5.97;;;4.35;;
42616;SDS011;28250;52.320;0.360;2024-02-16T04:18:40;5.30;;;4.25;;
42616;SDS011;28250;52.320;0.360;2024-02-16T04:21:06;7.90;;;3.83;;
42616;SDS011;28250;52.320;0.360;2024-02-16T04:23:32;6.78;;;4.47;;
42616;SDS011;28250;52.320;0.360;2024-02-16T04:25:58;6.78;;;3.88;;
42616;SDS011;28250;52.320;0.360;2024-02-16T04:28:24;5.60;;;4.13;;
42616;SDS011;28250;52.320;0.360;2024-02-16T04:30:50;5.75;;;4.00;;
42616;SDS011;28250;52.320;0.360;2024-02-16T04:33:16;7.95;;;4.25;;
42616;SDS011;28250;52.320;0.360;2024-02-16T04:35:42;5.80;;;3.70;;
42616;SDS011;28250;52.320;0.360;2024-02-16T04:38:11;6.20;;;4.00;;
42616;SDS011;28250;52.320;0.360;2024-02-16T04:40:38;6.13;;;3.88;;
42616;SDS011;28250;52.320;0.360;2024-02-16T04:43:05;4.15;;;3.40;;
42616;SDS011;28250;52.320;0.360;2024-02-16T04:45:31;4.35;;;3.65;;
42616;SDS011;28250;52.320;0.360;2024-02-16T04:47:57;7.25;;;3.42;;
42616;SDS011;28250;52.320;0.360;2024-02-16T04:50:25;4.72;;;3.50;;
42616;SDS011;28250;52.320;0.360;2024-02-16T04:52:52;4.50;;;3.67;;
42616;SDS011;28250;52.320;0.360;2024-02-16T04:55:18;5.10;;;3.22;;
42616;SDS011;28250;52.320;0.360;2024-02-16T04:57:44;4.57;;;3.35;;
42616;SDS011;28250;52.320;0.360;2024-02-16T05:00:10;3.90;;;3.50;;
42616;SDS011;28250;52.320;0.360;2024-02-16T05:02:37;6.40;;;3.20;;
42616;SDS011;28250;52.320;0.360;2024-02-16T05:05:03;6.63;;;3.42;;
42616;SDS011;28250;52.320;0.360;2024-02-16T05:07:30;6.32;;;3.53;;
42616;SDS011;28250;52.320;0.360;2024-02-16T05:09:56;7.82;;;3.40;;
42616;SDS011;28250;52.320;0.360;2024-02-16T05:12:23;2.95;;;2.63;;
42616;SDS011;28250;52.320;0.360;2024-02-16T05:14:51;4.85;;;3.15;;
42616;SDS011;28250;52.320;0.360;2024-02-16T05:17:18;4.18;;;3.00;;
42616;SDS011;28250;52.320;0.360;2024-02-16T05:19:46;2.97;;;2.40;;
42616;SDS011;28250;52.320;0.360;2024-02-16T05:22:12;3.78;;;2.83;;
42616;SDS011;28250;52.320;0.360;2024-02-16T05:24:38;2.92;;;2.40;;
42616;SDS011;28250;52.320;0.360;2024-02-16T05:27:04;3.55;;;2.47;;
42616;SDS011;28250;52.320;0.360;2024-02-16T05:29:30;3.35;;;2.78;;
42616;SDS011;28250;52.320;0.360;2024-02-16T05:31:56;4.85;;;2.88;;
42616;SDS011;28250;52.320;0.360;2024-02-16T05:34:22;3.80;;;2.75;;
42616;SDS011;28250;52.320;0.360;2024-02-16T05:36:49;3.10;;;2.30;;
42616;SDS011;28250;52.320;0.360;2024-02-16T05:39:15;3.83;;;2.55;;
42616;SDS011;28250;52.320;0.360;2024-02-16T05:41:52;3.13;;;2.10;;
42616;SDS011;28250;52.320;0.360;2024-02-16T05:44:19;3.05;;;2.08;;
42616;SDS011;28250;52.320;0.360;2024-02-16T05:46:45;5.05;;;2.40;;
42616;SDS011;28250;52.320;0.360;2024-02-16T05:49:11;3.95;;;2.67;;
42616;SDS011;28250;52.320;0.360;2024-02-16T05:51:40;3.72;;;2.72;;
42616;SDS011;28250;52.320;0.360;2024-02-16T05:54:06;3.47;;;3.03;;
42616;SDS011;28250;52.320;0.360;2024-02-16T05:56:36;5.05;;;2.80;;
42616;SDS011;28250;52.320;0.360;2024-02-16T05:59:04;3.85;;;2.58;;
42616;SDS011;28250;52.320;0.360;2024-02-16T06:01:30;5.37;;;2.67;;
42616;SDS011;28250;52.320;0.360;2024-02-16T06:03:56;3.45;;;2.10;;
42616;SDS011;28250;52.320;0.360;2024-02-16T06:06:23;3.38;;;2.33;;
42616;SDS011;28250;52.320;0.360;2024-02-16T06:08:49;5.63;;;2.28;;
42616;SDS011;28250;52.320;0.360;2024-02-16T06:11:15;3.13;;;2.30;;
42616;SDS011;28250;52.320;0.360;2024-02-16T06:13:41;4.95;;;2.30;;
42616;SDS011;28250;52.320;0.360;2024-02-16T06:16:07;3.25;;;1.95;;
42616;SDS011;28250;52.320;0.360;2024-02-16T06:18:36;2.80;;;2.10;;
42616;SDS011;28250;52.320;0.360;2024-02-16T06:21:03;2.63;;;2.13;;
42616;SDS011;28250;52.320;0.360;2024-02-16T06:23:29;4.03;;;2.17;;
42616;SDS011;28250;52.320;0.360;2024-02-16T06:25:55;3.90;;;2.38;;
42616;SDS011;28250;52.320;0.360;2024-02-16T06:28:21;2.97;;;2.17;;
42616;SDS011;28250;52.320;0.360;2024-02-16T06:30:48;4.57;;;2.42;;
42616;SDS011;28250;52.320;0.360;2024-02-16T06:33:14;4.97;;;2.53;;
42616;SDS011;28250;52.320;0.360;2024-02-16T06:35:40;4.53;;;2.88;;
42616;SDS011;28250;52.320;0.360;2024-02-16T06:38:06;5.47;;;2.80;;
42616;SDS011;28250;52.320;0.360;2024-02-16T06:40:32;2.63;;;2.42;;
42616;SDS011;28250;52.320;0.360;2024-02-16T06:42:58;4.68;;;3.50;;
42616;SDS011;28250;52.320;0.360;2024-02-16T06:45:25;4.30;;;2.92;;
42616;SDS011;28250;52.320;0.360;2024-02-16T06:47:51;4.25;;;3.38;;
42616;SDS011;28250;52.320;0.360;2024-02-16T06:50:17;4.50;;;2.75;;
42616;SDS011;28250;52.320;0.360;2024-02-16T06:52:43;4.10;;;2.60;;
42616;SDS011;28250;52.320;0.360;2024-02-16T06:55:09;5.32;;;2.80;;
42616;SDS011;28250;52.320;0.360;2024-02-16T06:57:35;6.20;;;2.88;;
42616;SDS011;28250;52.320;0.360;2024-02-16T07:00:01;3.90;;;2.70;;
42616;SDS011;28250;52.320;0.360;2024-02-16T07:02:28;4.28;;;2.88;;
42616;SDS011;28250;52.320;0.360;2024-02-16T07:04:54;3.00;;;2.60;;
42616;SDS011;28250;52.320;0.360;2024-02-16T07:07:20;3.58;;;2.53;;
42616;SDS011;28250;52.320;0.360;2024-02-16T07:09:46;7.10;;;2.65;;
42616;SDS011;28250;52.320;0.360;2024-02-16T07:12:12;2.95;;;2.40;;
42616;SDS011;28250;52.320;0.360;2024-02-16T07:14:39;5.13;;;2.40;;
42616;SDS011;28250;52.320;0.360;2024-02-16T07:17:05;5.43;;;3.00;;
42616;SDS011;28250;52.320;0.360;2024-02-16T07:19:35;4.97;;;2.47;;
42616;SDS011;28250;52.320;0.360;2024-02-16T07:22:02;3.83;;;2.80;;
42616;SDS011;28250;52.320;0.360;2024-02-16T07:24:31;4.68;;;2.53;;
42616;SDS011;28250;52.320;0.360;2024-02-16T07:26:58;5.78;;;2.88;;
42616;SDS011;28250;52.320;0.360;2024-02-16T07:29:25;3.13;;;2.30;;
42616;SDS011;28250;52.320;0.360;2024-02-16T07:31:52;5.00;;;2.45;;
42616;SDS011;28250;52.320;0.360;2024-02-16T07:34:19;5.43;;;2.58;;
42616;SDS011;28250;52.320;0.360;2024-02-16T07:36:45;5.07;;;2.58;;
42616;SDS011;28250;52.320;0.360;2024-02-16T07:39:11;3.45;;;2.60;;
42616;SDS011;28250;52.320;0.360;2024-02-16T07:41:37;3.42;;;2.47;;
42616;SDS011;28250;52.320;0.360;2024-02-16T07:44:04;2.72;;;2.38;;
42616;SDS011;28250;52.320;0.360;2024-02-16T07:46:31;4.10;;;2.80;;
42616;SDS011;28250;52.320;0.360;2024-02-16T07:48:57;3.78;;;2.40;;
42616;SDS011;28250;52.320;0.360;2024-02-16T07:51:23;5.43;;;3.10;;
42616;SDS011;28250;52.320;0.360;2024-02-16T07:53:49;4.35;;;2.72;;
42616;SDS011;28250;52.320;0.360;2024-02-16T07:56:15;2.67;;;2.00;;
42616;SDS011;28250;52.320;0.360;2024-02-16T07:58:41;5.28;;;2.40;;
42616;SDS011;28250;52.320;0.360;2024-02-16T08:01:14;6.70;;;3.47;;
42616;SDS011;28250;52.320;0.360;2024-02-16T08:03:42;8.95;;;5.25;;
42616;SDS011;28250;52.320;0.360;2024-02-16T08:06:08;8.27;;;6.20;;
42616;SDS011;28250;52.320;0.360;2024-02-16T08:08:34;14.55;;;10.40;;
42616;SDS011;28250;52.320;0.360;2024-02-16T08:11:01;9.15;;;4.38;;
42616;SDS011;28250;52.320;0.360;2024-02-16T08:13:28;6.10;;;3.47;;
42616;SDS011;28250;52.320;0.360;2024-02-16T08:15:54;4.97;;;2.97;;
42616;SDS011;28250;52.320;0.360;2024-02-16T08:18:20;5.35;;;2.92;;
42616;SDS011;28250;52.320;0.360;2024-02-16T08:20:46;8.40;;;4.25;;
42616;SDS011;28250;52.320;0.360;2024-02-16T08:23:12;5.55;;;2.63;;
42616;SDS011;28250;52.320;0.360;2024-02-16T08:25:38;4.95;;;2.72;;
42616;SDS011;28250;52.320;0.360;2024-02-16T08:28:04;4.72;;;2.80;;
42616;SDS011;28250;52.320;0.360;2024-02-16T08:30:31;5.88;;;2.50;;
42616;SDS011;28250;52.320;0.360;2024-02-16T08:35:25;6.22;;;2.40;;
42616;SDS011;28250;52.320;0.360;2024-02-16T08:37:51;7.60;;;2.53;;
42616;SDS011;28250;52.320;0.360;2024-02-16T08:40:17;3.83;;;2.22;;
42616;SDS011;28250;52.320;0.360;2024-02-16T08:42:44;5.82;;;2.05;;
42616;SDS011;28250;52.320;0.360;2024-02-16T08:45:10;3.47;;;1.85;;
42616;SDS011;28250;52.320;0.360;2024-02-16T08:47:37;3.08;;;2.05;;
42616;SDS011;28250;52.320;0.360;2024-02-16T08:50:04;5.93;;;2.22;;
42616;SDS011;28250;52.320;0.360;2024-02-16T08:52:32;7.05;;;2.47;;
42616;SDS011;28250;52.320;0.360;2024-02-16T08:54:58;5.70;;;2.00;;
42616;SDS011;28250;52.320;0.360;2024-02-16T08:57:24;6.30;;;2.30;;
42616;SDS011;28250;52.320;0.360;2024-02-16T08:59:50;7.28;;;2.50;;
42616;SDS011;28250;52.320;0.360;2024-02-16T09:02:16;5.53;;;2.40;;
42616;SDS011;28250;52.320;0.360;2024-02-16T09:04:42;13.55;;;3.10;;
42616;SDS011;28250;52.320;0.360;2024-02-16T09:07:08;4.57;;;1.75;;
42616;SDS011;28250;52.320;0.360;2024-02-16T09:09:34;5.00;;;1.70;;
42616;SDS011;28250;52.320;0.360;2024-02-16T09:12:00;5.40;;;1.85;;
42616;SDS011;28250;52.320;0.360;2024-02-16T09:14:26;4.55;;;1.90;;
42616;SDS011;28250;52.320;0.360;2024-02-16T09:16:52;4.47;;;1.98;;
42616;SDS011;28250;52.320;0.360;2024-02-16T09:19:18;6.30;;;1.85;;
42616;SDS011;28250;52.320;0.360;2024-02-16T09:21:45;3.63;;;1.63;;
42616;SDS011;28250;52.320;0.360;2024-02-16T09:24:11;4.57;;;2.03;;
42616;SDS011;28250;52.320;0.360;2024-02-16T09:26:43;5.07;;;2.00;;
42616;SDS011;28250;52.320;0.360;2024-02-16T09:29:12;7.72;;;2.75;;
42616;SDS011;28250;52.320;0.360;2024-02-16T09:31:41;3.20;;;1.58;;
42616;SDS011;28250;52.320;0.360;2024-02-16T09:34:07;4.45;;;1.80;;
42616;SDS011;28250;52.320;0.360;2024-02-16T09:36:34;6.85;;;2.42;;
42616;SDS011;28250;52.320;0.360;2024-02-16T09:39:02;2.97;;;1.45;;
42616;SDS011;28250;52.320;0.360;2024-02-16T09:41:29;7.20;;;2.13;;
42616;SDS011;28250;52.320;0.360;2024-02-16T09:43:58;6.43;;;2.15;;
42616;SDS011;28250;52.320;0.360;2024-02-16T09:46:25;6.17;;;2.17;;
42616;SDS011;28250;52.320;0.360;2024-02-16T09:48:53;8.45;;;2.13;;
42616;SDS011;28250;52.320;0.360;2024-02-16T09:51:20;4.78;;;2.00;;
42616;SDS011;28250;52.320;0.360;2024-02-16T09:53:49;4.35;;;1.73;;
42616;SDS011;28250;52.320;0.360;2024-02-16T09:56:22;5.45;;;3.08;;
42616;SDS011;28250;52.320;0.360;2024-02-16T09:58:51;6.07;;;1.90;;
42616;SDS011;28250;52.320;0.360;2024-02-16T10:01:18;7.15;;;2.03;;
42616;SDS011;28250;52.320;0.360;2024-02-16T10:03:51;8.38;;;2.08;;
42616;SDS011;28250;52.320;0.360;2024-02-16T10:06:17;4.68;;;2.15;;
42616;SDS011;28250;52.320;0.360;2024-02-16T10:08:52;9.27;;;2.13;;
42616;SDS011;28250;52.320;0.360;2024-02-16T10:11:22;3.47;;;1.77;;
42616;SDS011;28250;52.320;0.360;2024-02-16T10:14:02;7.60;;;2.05;;
42616;SDS011;28250;52.320;0.360;2024-02-16T10:16:29;6.63;;;2.15;;
42616;SDS011;28250;52.320;0.360;2024-02-16T10:18:57;5.97;;;2.40;;
42616;SDS011;28250;52.320;0.360;2024-02-16T10:21:31;8.50;;;2.30;;
42616;SDS011;28250;52.320;0.360;2024-02-16T10:24:05;7.20;;;3.13;;
42616;SDS011;28250;52.320;0.360;2024-02-16T10:26:33;7.50;;;2.55;;
42616;SDS011;28250;52.320;0.360;2024-02-16T10:29:04;10.35;;;2.75;;
42616;SDS011;28250;52.320;0.360;2024-02-16T10:31:36;5.53;;;2.33;;
42616;SDS011;28250;52.320;0.360;2024-02-16T10:34:03;12.70;;;3.50;;
42616;SDS011;28250;52.320;0.360;2024-02-16T10:36:34;7.82;;;2.42;;
42616;SDS011;28250;52.320;0.360;2024-02-16T10:39:02;4.63;;;2.45;;
42616;SDS011;28250;52.320;0.360;2024-02-16T10:41:33;6.85;;;2.70;;
42616;SDS011;28250;52.320;0.360;2024-02-16T10:44:04;7.47;;;2.60;;
42616;SDS011;28250;52.320;0.360;2024-02-16T10:46:31;8.90;;;2.07;;
42616;SDS011;28250;52.320;0.360;2024-02-16T10:48:59;5.00;;;1.95;;
42616;SDS011;28250;52.320;0.360;2024-02-16T10:51:36;4.40;;;1.90;;
42616;SDS011;28250;52.320;0.360;2024-02-16T10:54:07;8.68;;;2.50;;
42616;SDS011;28250;52.320;0.360;2024-02-16T10:59:07;7.10;;;2.50;;
42616;SDS011;28250;52.320;0.360;2024-02-16T11:01:38;3.97;;;2.13;;
42616;SDS011;28250;52.320;0.360;2024-02-16T11:04:07;7.13;;;2.83;;
42616;SDS011;28250;52.320;0.360;2024-02-16T11:09:22;7.20;;;2.53;;
42616;SDS011;28250;52.320;0.360;2024-02-16T11:11:52;7.18;;;2.20;;
42616;SDS011;28250;52.320;0.360;2024-02-16T11:14:36;10.68;;;2.50;;
42616;SDS011;28250;52.320;0.360;2024-02-16T11:17:12;6.70;;;2.28;;
42616;SDS011;28250;52.320;0.360;2024-02-16T11:19:40;6.28;;;2.25;;
42616;SDS011;28250;52.320;0.360;2024-02-16T11:22:10;9.43;;;2.95;;
42616;SDS011;28250;52.320;0.360;2024-02-16T11:24:45;7.25;;;2.45;;
42616;SDS011;28250;52.320;0.360;2024-02-16T11:27:15;10.93;;;2.28;;
42616;SDS011;28250;52.320;0.360;2024-02-16T11:29:44;5.50;;;2.00;;
42616;SDS011;28250;52.320;0.360;2024-02-16T11:32:11;6.50;;;1.98;;
42616;SDS011;28250;52.320;0.360;2024-02-16T11:34:38;4.25;;;1.92;;
42616;SDS011;28250;52.320;0.360;2024-02-16T11:37:04;9.25;;;2.15;;
42616;SDS011;28250;52.320;0.360;2024-02-16T11:39:31;7.73;;;1.43;;
42616;SDS011;28250;52.320;0.360;2024-02-16T11:44:31;5.60;;;1.90;;
42616;SDS011;28250;52.320;0.360;2024-02-16T11:47:01;6.13;;;1.80;;
42616;SDS011;28250;52.320;0.360;2024-02-16T11:49:29;5.13;;;1.60;;
42616;SDS011;28250;52.320;0.360;2024-02-16T11:51:56;6.43;;;1.90;;
42616;SDS011;28250;52.320;0.360;2024-02-16T11:54:25;7.28;;;2.05;;
42616;SDS011;28250;52.320;0.360;2024-02-16T11:56:52;5.13;;;1.67;;
42616;SDS011;28250;52.320;0.360;2024-02-16T11:59:18;4.30;;;1.55;;
42616;SDS011;28250;52.320;0.360;2024-02-16T12:01:49;11.52;;;2.38;;
42616;SDS011;28250;52.320;0.360;2024-02-16T12:04:29;8.75;;;2.80;;
42616;SDS011;28250;52.320;0.360;2024-02-16T12:06:56;11.38;;;3.90;;
42616;SDS011;28250;52.320;0.360;2024-02-16T12:09:24;8.88;;;3.15;;
42616;SDS011;28250;52.320;0.360;2024-02-16T12:11:52;6.30;;;2.33;;
42616;SDS011;28250;52.320;0.360;2024-02-16T12:14:20;5.63;;;2.10;;
42616;SDS011;28250;52.320;0.360;2024-02-16T12:16:48;4.05;;;1.48;;
42616;SDS011;28250;52.320;0.360;2024-02-16T12:19:21;8.32;;;1.85;;
42616;SDS011;28250;52.320;0.360;2024-02-16T12:21:57;4.10;;;1.50;;
42616;SDS011;28250;52.320;0.360;2024-02-16T12:24:23;9.02;;;2.10;;
42616;SDS011;28250;52.320;0.360;2024-02-16T12:26:50;9.13;;;1.77;;
42616;SDS011;28250;52.320;0.360;2024-02-16T12:29:16;4.72;;;1.55;;
42616;SDS011;28250;52.320;0.360;2024-02-16T12:31:43;4.30;;;1.88;;
42616;SDS011;28250;52.320;0.360;2024-02-16T12:34:13;7.38;;;2.83;;
42616;SDS011;28250;52.320;0.360;2024-02-16T12:36:39;9.27;;;3.90;;
42616;SDS011;28250;52.320;0.360;2024-02-16T12:39:07;7.07;;;3.00;;
42616;SDS011;28250;52.320;0.360;2024-02-16T12:41:37;6.72;;;2.83;;
42616;SDS011;28250;52.320;0.360;2024-02-16T12:44:04;5.53;;;1.63;;
42616;SDS011;28250;52.320;0.360;2024-02-16T12:46:33;6.15;;;2.40;;
42616;SDS011;28250;52.320;0.360;2024-02-16T12:48:59;11.43;;;3.47;;
42616;SDS011;28250;52.320;0.360;2024-02-16T12:51:26;7.80;;;1.42;;
42616;SDS011;28250;52.320;0.360;2024-02-16T12:53:52;4.30;;;0.95;;
42616;SDS011;28250;52.320;0.360;2024-02-16T12:56:18;4.65;;;1.00;;
42616;SDS011;28250;52.320;0.360;2024-02-16T12:58:46;5.85;;;0.88;;
42616;SDS011;28250;52.320;0.360;2024-02-16T13:01:13;4.43;;;0.77;;
42616;SDS011;28250;52.320;0.360;2024-02-16T13:03:39;4.78;;;1.33;;
42616;SDS011;28250;52.320;0.360;2024-02-16T13:06:05;3.53;;;1.25;;
42616;SDS011;28250;52.320;0.360;2024-02-16T13:08:32;4.22;;;1.05;;
42616;SDS011;28250;52.320;0.360;2024-02-16T13:10:58;2.53;;;0.80;;
42616;SDS011;28250;52.320;0.360;2024-02-16T13:13:24;1.15;;;0.63;;
42616;SDS011;28250;52.320;0.360;2024-02-16T13:15:50;4.45;;;1.25;;
42616;SDS011;28250;52.320;0.360;2024-02-16T13:18:16;3.88;;;0.82;;
42616;SDS011;28250;52.320;0.360;2024-02-16T13:20:43;3.35;;;0.70;;
42616;SDS011;28250;52.320;0.360;2024-02-16T13:23:10;4.65;;;0.93;;
42616;SDS011;28250;52.320;0.360;2024-02-16T13:25:36;2.95;;;0.60;;
42616;SDS011;28250;52.320;0.360;2024-02-16T13:28:02;2.03;;;0.57;;
42616;SDS011;28250;52.320;0.360;2024-02-16T13:30:29;2.97;;;0.40;;
42616;SDS011;28250;52.320;0.360;2024-02-16T13:32:55;2.38;;;0.60;;
42616;SDS011;28250;52.320;0.360;2024-02-16T13:35:21;2.20;;;0.60;;
42616;SDS011;28250;52.320;0.360;2024-02-16T13:37:47;1.38;;;0.55;;
42616;SDS011;28250;52.320;0.360;2024-02-16T13:40:14;1.33;;;0.50;;
42616;SDS011;28250;52.320;0.360;2024-02-16T13:42:41;1.65;;;0.45;;
42616;SDS011;28250;52.320;0.360;2024-02-16T13:45:08;3.08;;;0.85;;
42616;SDS011;28250;52.320;0.360;2024-02-16T13:47:37;1.95;;;0.55;;
42616;SDS011;28250;52.320;0.360;2024-02-16T13:50:07;0.65;;;0.35;;
42616;SDS011;28250;52.320;0.360;2024-02-16T13:52:33;2.13;;;0.87;;
42616;SDS011;28250;52.320;0.360;2024-02-16T13:55:00;0.70;;;0.38;;
42616;SDS011;28250;52.320;0.360;2024-02-16T13:57:27;2.97;;;0.70;;
42616;SDS011;28250;52.320;0.360;2024-02-16T13:59:53;2.60;;;0.30;;
42616;SDS011;28250;52.320;0.360;2024-02-16T14:02:19;2.20;;;0.50;;
42616;SDS011;28250;52.320;0.360;2024-02-16T14:04:46;2.97;;;0.57;;
42616;SDS011;28250;52.320;0.360;2024-02-16T14:07:12;3.35;;;0.63;;
42616;SDS011;28250;52.320;0.360;2024-02-16T14:09:38;1.65;;;0.50;;
42616;SDS011;28250;52.320;0.360;2024-02-16T14:12:04;0.93;;;0.40;;
42616;SDS011;28250;52.320;0.360;2024-02-16T14:14:31;2.85;;;0.60;;
42616;SDS011;28250;52.320;0.360;2024-02-16T14:16:57;1.85;;;0.50;;
42616;SDS011;28250;52.320;0.360;2024-02-16T14:19:23;1.70;;;0.80;;
42616;SDS011;28250;52.320;0.360;2024-02-16T14:21:49;3.22;;;0.70;;
42616;SDS011;28250;52.320;0.360;2024-02-16T14:24:15;1.40;;;0.80;;
42616;SDS011;28250;52.320;0.360;2024-02-16T14:26:43;5.03;;;0.82;;
42616;SDS011;28250;52.320;0.360;2024-02-16T14:29:09;2.63;;;0.88;;
42616;SDS011;28250;52.320;0.360;2024-02-16T14:31:36;1.77;;;0.60;;
42616;SDS011;28250;52.320;0.360;2024-02-16T14:34:02;2.60;;;0.70;;
42616;SDS011;28250;52.320;0.360;2024-02-16T14:36:28;1.63;;;0.85;;
42616;SDS011;28250;52.320;0.360;2024-02-16T14:38:54;1.95;;;1.23;;
42616;SDS011;28250;52.320;0.360;2024-02-16T14:41:20;2.85;;;1.05;;
42616;SDS011;28250;52.320;0.360;2024-02-16T14:43:47;3.10;;;1.02;;
42616;SDS011;28250;52.320;0.360;2024-02-16T14:46:13;3.95;;;1.50;;
42616;SDS011;28250;52.320;0.360;2024-02-16T14:48:41;2.33;;;1.05;;
42616;SDS011;28250;52.320;0.360;2024-02-16T14:51:07;1.90;;;0.70;;
42616;SDS011;28250;52.320;0.360;2024-02-16T14:53:33;0.88;;;0.60;;
42616;SDS011;28250;52.320;0.360;2024-02-16T14:55:59;1.40;;;0.50;;
42616;SDS011;28250;52.320;0.360;2024-02-16T14:58:26;1.92;;;0.60;;
42616;SDS011;28250;52.320;0.360;2024-02-16T15:00:52;1.48;;;0.30;;
42616;SDS011;28250;52.320;0.360;2024-02-16T15:03:19;0.63;;;0.30;;